Time;durP1;ratioP1;P1;durP2;ratioP2;P2;SDS_P1;SDS_P2;PMS_P1;PMS_P2;Temp;Humidity;BMP_temperature;BMP_pressure;BME280_temperature;BME280_humidity;BME280_pressure;Samples;Min_cycle;Max_cycle;Signal;HPM_P1;HPM_P2
2023/04/17 00:01:59;;;;;;;18.05;14.15;;;6.50;99.90;;;;;;5005395;28;20656;-86
2023/04/17 00:04:26;;;;;;;14.35;11.20;;;6.70;99.90;;;;;;5006493;28;20230;-84
2023/04/17 00:06:53;;;;;;;4.53;3.92;;;6.70;99.90;;;;;;4997906;28;20602;-84
2023/04/17 00:09:20;;;;;;;13.63;11.00;;;6.80;99.90;;;;;;5011446;28;20316;-84
2023/04/17 00:11:47;;;;;;;13.57;9.63;;;6.80;99.90;;;;;;5015281;28;20207;-84
2023/04/17 00:14:15;;;;;;;4.28;3.60;;;6.70;99.90;;;;;;5014550;28;20203;-84
2023/04/17 00:16:41;;;;;;;1.30;1.20;;;6.60;99.90;;;;;;5019172;28;20192;-84
2023/04/17 00:19:08;;;;;;;2.35;1.50;;;6.40;99.90;;;;;;5010910;28;20211;-85
2023/04/17 00:21:35;;;;;;;9.27;7.35;;;6.10;99.90;;;;;;5008248;28;20204;-84
2023/04/17 00:24:02;;;;;;;8.77;7.30;;;6.10;99.90;;;;;;5012421;28;20574;-83
2023/04/17 00:26:31;;;;;;;7.13;5.70;;;6.30;99.90;;;;;;5014618;28;20215;-84
2023/04/17 00:28:57;;;;;;;10.35;8.45;;;6.30;99.90;;;;;;5012482;28;20703;-84
2023/04/17 00:31:26;;;;;;;2.28;1.92;;;6.50;99.90;;;;;;5012981;28;20207;-84
2023/04/17 00:33:53;;;;;;;10.43;7.68;;;6.40;99.90;;;;;;5014722;28;20192;-83
2023/04/17 00:36:20;;;;;;;10.85;8.63;;;6.40;99.90;;;;;;5000162;28;20200;-84
2023/04/17 00:38:46;;;;;;;7.10;5.10;;;6.40;99.90;;;;;;5007368;28;20283;-84
2023/04/17 00:41:13;;;;;;;4.55;3.92;;;6.50;99.90;;;;;;4996117;28;20207;-84
2023/04/17 00:43:40;;;;;;;13.85;10.25;;;6.40;99.90;;;;;;4993588;28;20199;-84
2023/04/17 00:46:08;;;;;;;11.77;8.50;;;6.40;99.90;;;;;;5014087;28;20196;-84
2023/04/17 00:48:39;;;;;;;1.98;1.42;;;6.40;99.90;;;;;;5007717;28;20208;-83
2023/04/17 00:51:06;;;;;;;16.63;12.45;;;6.30;99.90;;;;;;5010548;28;20207;-84
2023/04/17 00:53:34;;;;;;;24.52;17.60;;;6.20;99.90;;;;;;4998765;28;20207;-85
2023/04/17 00:56:03;;;;;;;14.95;11.70;;;6.30;99.90;;;;;;5013994;28;20199;-84
2023/04/17 00:58:30;;;;;;;12.75;10.10;;;6.50;99.90;;;;;;5022078;28;20683;-84
2023/04/17 01:00:58;;;;;;;1.08;1.00;;;6.60;99.90;;;;;;4997666;28;20652;-84
2023/04/17 01:03:25;;;;;;;11.07;8.70;;;6.40;99.90;;;;;;5014794;28;20191;-84
2023/04/17 01:05:53;;;;;;;7.97;5.93;;;6.40;99.90;;;;;;5023879;28;20206;-84
2023/04/17 01:08:20;;;;;;;8.15;6.78;;;6.40;99.90;;;;;;5013717;28;20200;-89
2023/04/17 01:10:47;;;;;;;10.88;9.48;;;6.50;99.90;;;;;;5011607;28;20227;-85
2023/04/17 01:13:13;;;;;;;8.50;6.82;;;6.60;99.90;;;;;;5011616;28;20203;-83
2023/04/17 01:15:41;;;;;;;5.72;4.45;;;6.40;99.90;;;;;;5015268;28;20562;-84
2023/04/17 01:18:08;;;;;;;4.72;3.83;;;6.40;99.90;;;;;;5015322;28;20226;-86
2023/04/17 01:20:36;;;;;;;8.23;6.68;;;6.40;99.90;;;;;;5014253;28;20208;-84
2023/04/17 01:23:05;;;;;;;7.85;6.43;;;6.50;99.90;;;;;;5012986;28;20595;-84
2023/04/17 01:25:33;;;;;;;9.93;6.30;;;6.50;99.90;;;;;;5015418;28;20206;-84
2023/04/17 01:28:00;;;;;;;5.47;4.28;;;6.50;99.90;;;;;;5003991;28;20206;-84
2023/04/17 01:30:27;;;;;;;1.88;1.75;;;6.40;99.90;;;;;;5010943;28;20215;-83
2023/04/17 01:32:54;;;;;;;11.63;8.95;;;6.30;99.90;;;;;;5015637;28;20205;-84
2023/04/17 01:35:21;;;;;;;6.57;5.45;;;6.30;99.90;;;;;;5012142;28;20208;-84
2023/04/17 01:37:48;;;;;;;2.33;1.65;;;6.50;99.90;;;;;;5017634;28;20207;-84
2023/04/17 01:40:15;;;;;;;2.65;2.45;;;6.40;99.90;;;;;;4996305;28;20207;-84
2023/04/17 01:42:43;;;;;;;9.07;7.88;;;6.30;99.90;;;;;;5019604;28;20214;-85
2023/04/17 01:45:10;;;;;;;6.63;5.35;;;6.50;99.90;;;;;;5017117;28;20195;-84
2023/04/17 01:47:38;;;;;;;16.27;13.13;;;6.60;99.90;;;;;;4993084;28;20203;-85
2023/04/17 01:50:07;;;;;;;11.88;9.63;;;6.80;99.90;;;;;;5010696;28;20246;-84
2023/04/17 01:52:34;;;;;;;20.42;15.93;;;6.80;99.90;;;;;;5002265;28;20210;-84
2023/04/17 01:55:02;;;;;;;10.63;8.75;;;6.80;99.90;;;;;;5014964;28;20199;-84
2023/04/17 01:57:29;;;;;;;2.00;1.70;;;6.80;99.90;;;;;;5010073;28;20196;-84
2023/04/17 01:59:57;;;;;;;7.40;6.68;;;6.60;99.90;;;;;;5011342;28;20215;-84
2023/04/17 02:02:24;;;;;;;13.50;10.70;;;6.50;99.90;;;;;;5017796;28;20207;-83
2023/04/17 02:04:51;;;;;;;14.70;11.10;;;6.70;99.90;;;;;;5021894;28;20218;-84
2023/04/17 02:07:17;;;;;;;8.07;6.90;;;6.90;99.90;;;;;;5014353;28;20204;-84
2023/04/17 02:09:44;;;;;;;11.57;9.90;;;7.00;99.90;;;;;;5021397;28;20249;-84
2023/04/17 02:12:11;;;;;;;14.23;10.93;;;7.10;99.90;;;;;;5010663;28;20262;-84
2023/04/17 02:14:38;;;;;;;12.65;10.55;;;7.20;99.90;;;;;;5001332;28;20204;-83
2023/04/17 02:17:06;;;;;;;2.30;2.10;;;7.30;99.90;;;;;;5004333;28;20211;-84
2023/04/17 02:19:34;;;;;;;2.55;2.35;;;7.10;99.90;;;;;;5013206;28;20198;-84
2023/04/17 02:24:43;;;;;;;3.35;2.42;;;6.80;99.90;;;;;;5053436;22;20593;-84
2023/04/17 02:27:10;;;;;;;9.07;6.57;;;6.80;99.90;;;;;;5032860;28;20662;-84
2023/04/17 02:29:37;;;;;;;2.70;2.50;;;6.60;99.90;;;;;;5033433;28;20290;-84
2023/04/17 02:32:04;;;;;;;3.10;2.80;;;6.50;99.90;;;;;;5033081;28;20206;-84
2023/04/17 02:34:32;;;;;;;9.73;8.13;;;6.40;99.90;;;;;;5036124;28;20247;-84
2023/04/17 02:36:59;;;;;;;5.68;5.03;;;6.40;99.90;;;;;;5019886;28;20210;-83
2023/04/17 02:39:26;;;;;;;10.00;8.70;;;6.50;99.90;;;;;;5033129;28;20301;-85
2023/04/17 02:41:53;;;;;;;4.30;3.90;;;6.50;99.90;;;;;;5020766;28;20202;-84
2023/04/17 02:44:19;;;;;;;5.45;4.72;;;6.50;99.90;;;;;;5039209;28;20209;-83
2023/04/17 02:46:46;;;;;;;4.32;3.33;;;6.60;99.90;;;;;;5033589;28;20601;-84
2023/04/17 02:49:13;;;;;;;8.60;7.45;;;6.60;99.90;;;;;;5024068;28;20198;-84
2023/04/17 02:51:41;;;;;;;6.75;5.88;;;6.50;99.90;;;;;;5033424;28;20201;-84
2023/04/17 02:54:08;;;;;;;6.95;5.63;;;6.60;99.90;;;;;;5029886;28;20198;-85
2023/04/17 02:56:35;;;;;;;5.68;4.95;;;6.70;99.90;;;;;;5033184;28;20195;-84
2023/04/17 02:59:02;;;;;;;11.68;9.55;;;6.70;99.90;;;;;;5032904;28;20214;-84
2023/04/17 03:01:29;;;;;;;8.55;7.10;;;6.90;99.90;;;;;;5032617;28;20218;-84
2023/04/17 03:03:55;;;;;;;15.80;12.45;;;7.10;99.90;;;;;;5032787;28;20203;-84
2023/04/17 03:06:23;;;;;;;21.00;17.02;;;7.30;99.90;;;;;;5033120;28;20202;-84
2023/04/17 03:08:51;;;;;;;24.67;19.85;;;7.50;99.90;;;;;;5032992;28;20202;-84
2023/04/17 03:11:18;;;;;;;5.80;5.03;;;7.50;99.90;;;;;;5035680;28;20234;-84
2023/04/17 03:13:45;;;;;;;6.32;5.25;;;7.30;99.90;;;;;;5036725;28;20553;-83
2023/04/17 03:16:12;;;;;;;17.70;14.10;;;7.00;99.90;;;;;;5026592;28;20674;-84
2023/04/17 03:18:40;;;;;;;23.55;18.98;;;7.00;99.90;;;;;;5019356;28;20206;-83
2023/04/17 03:21:07;;;;;;;6.03;5.10;;;7.20;99.90;;;;;;5036938;28;20257;-84
2023/04/17 03:23:34;;;;;;;14.90;12.30;;;7.10;99.90;;;;;;5019524;28;20229;-84
2023/04/17 03:26:02;;;;;;;8.63;7.57;;;7.00;99.90;;;;;;5033408;28;20554;-84
2023/04/17 03:28:29;;;;;;;6.43;5.50;;;7.20;99.90;;;;;;5036099;28;20206;-84
2023/04/17 03:30:58;;;;;;;8.02;6.43;;;7.10;99.90;;;;;;5036891;28;20229;-84
2023/04/17 03:33:25;;;;;;;13.35;10.27;;;6.90;99.90;;;;;;5038703;28;20583;-84
2023/04/17 03:35:52;;;;;;;12.60;10.32;;;6.90;99.90;;;;;;5023937;28;20199;-84
2023/04/17 03:38:18;;;;;;;16.08;12.18;;;7.10;99.90;;;;;;5019064;28;20216;-83
2023/04/17 03:40:45;;;;;;;13.20;9.40;;;7.20;99.90;;;;;;5036769;28;20206;-83
2023/04/17 03:43:13;;;;;;;18.05;13.68;;;7.30;99.90;;;;;;5036832;28;20563;-84
2023/04/17 03:45:40;;;;;;;12.65;9.75;;;7.30;99.90;;;;;;5036697;28;20191;-84
2023/04/17 03:48:07;;;;;;;14.13;9.65;;;7.20;99.90;;;;;;5036728;28;20203;-84
2023/04/17 03:50:34;;;;;;;19.00;13.68;;;7.00;99.90;;;;;;5036636;28;20245;-84
2023/04/17 03:53:01;;;;;;;22.33;16.73;;;7.00;99.90;;;;;;5036322;28;20206;-85
2023/04/17 03:55:28;;;;;;;15.15;10.45;;;7.20;99.90;;;;;;5036358;28;20209;-84
2023/04/17 03:57:55;;;;;;;31.30;22.00;;;7.20;99.90;;;;;;5036254;28;20194;-84
2023/04/17 04:03:45;;;;;;;28.52;21.00;;;7.20;99.90;;;;;;5036785;28;20185;-82
2023/04/17 04:07:04;;;;;;;24.85;17.90;;;7.30;99.90;;;;;;5036461;28;20202;-84
2023/04/17 04:09:31;;;;;;;21.55;15.57;;;7.40;99.90;;;;;;5036030;28;20222;-84
2023/04/17 04:11:58;;;;;;;16.90;10.38;;;7.50;99.90;;;;;;5035811;28;20207;-84
2023/04/17 04:14:25;;;;;;;14.63;10.13;;;7.40;99.90;;;;;;5035473;28;20272;-85
2023/04/17 04:17:27;;;;;;;15.45;11.30;;;7.20;99.90;;;;;;5019552;28;20190;-84
2023/04/17 04:57:58;;;;;;;14.05;11.27;;;7.60;99.90;;;;;;5005739;28;20350;-84
2023/04/17 05:00:25;;;;;;;14.55;11.10;;;7.50;99.90;;;;;;5011635;28;20208;-83
2023/04/17 05:02:52;;;;;;;18.05;13.15;;;7.40;99.90;;;;;;5011810;28;20617;-84
2023/04/17 05:09:00;;;;;;;18.50;14.00;;;7.60;99.90;;;;;;4995691;28;20180;-85
2023/04/17 05:11:36;;;;;;;15.98;13.00;;;7.70;99.90;;;;;;5008813;28;20234;-85
2023/04/17 05:14:03;;;;;;;13.57;10.63;;;7.80;99.90;;;;;;4998913;28;20227;-86
2023/04/17 05:16:30;;;;;;;13.60;11.10;;;7.80;99.90;;;;;;5016663;28;20549;-85
2023/04/17 05:18:57;;;;;;;13.82;10.60;;;7.80;99.90;;;;;;4988107;28;20203;-82
2023/04/17 05:21:26;;;;;;;19.08;14.13;;;7.80;99.90;;;;;;4998213;28;20199;-82
2023/04/17 05:23:53;;;;;;;17.35;13.48;;;7.80;99.90;;;;;;4989782;28;20239;-88
2023/04/17 05:26:20;;;;;;;18.13;14.50;;;7.90;99.90;;;;;;4997182;28;20215;-83
2023/04/17 05:28:49;;;;;;;21.10;15.48;;;8.10;99.90;;;;;;5015512;28;20728;-84
2023/04/17 05:31:16;;;;;;;17.33;12.35;;;8.10;99.90;;;;;;5016042;28;20574;-84
2023/04/17 05:34:00;;;;;;;16.38;12.43;;;8.20;99.90;;;;;;5014303;28;20237;-84
2023/04/17 05:36:59;;;;;;;6.60;5.43;;;8.20;99.90;;;;;;5004645;28;20207;-85
2023/04/17 05:39:26;;;;;;;6.50;4.95;;;8.10;99.90;;;;;;4993534;28;20303;-86
2023/04/17 05:41:54;;;;;;;9.55;6.15;;;8.10;99.40;;;;;;4996643;28;20286;-85
2023/04/17 06:05:48;;;;;;;11.55;6.95;;;6.90;99.90;;;;;;4995828;28;20200;-86
2023/04/17 16:55:16;;;;;;;9.32;6.20;;;9.70;98.70;;;;;;5012873;28;20303;-83
2023/04/17 16:57:44;;;;;;;7.00;6.15;;;9.60;98.90;;;;;;4999138;28;20287;-83
2023/04/17 17:00:12;;;;;;;7.35;6.13;;;9.60;97.90;;;;;;5006076;28;20234;-82
2023/04/17 17:02:40;;;;;;;6.30;5.70;;;9.50;98.70;;;;;;4998277;28;20203;-84
2023/04/17 17:05:07;;;;;;;6.88;5.80;;;9.50;97.70;;;;;;5010143;28;20200;-83
2023/04/17 17:07:56;;;;;;;8.98;6.60;;;9.50;97.80;;;;;;4996280;28;20559;-83
2023/04/17 17:10:24;;;;;;;8.88;6.53;;;9.60;97.70;;;;;;4996180;28;20668;-83
2023/04/17 17:12:51;;;;;;;7.32;6.13;;;9.70;97.40;;;;;;4978916;28;20215;-83
2023/04/17 17:19:29;;;;;;;6.68;5.97;;;9.90;96.30;;;;;;5007735;28;20188;-88
2023/04/17 17:37:35;;;;;;;7.22;6.32;;;10.20;95.20;;;;;;5013113;28;20218;-83
2023/04/17 17:40:03;;;;;;;7.57;5.70;;;10.20;94.90;;;;;;5014286;28;20655;-89
2023/04/17 17:42:31;;;;;;;6.30;5.70;;;10.20;94.50;;;;;;5013586;28;20207;-82
2023/04/17 17:45:07;;;;;;;6.45;5.85;;;10.20;94.90;;;;;;5007707;28;20387;-82
2023/04/17 17:47:33;;;;;;;6.40;5.80;;;10.10;95.10;;;;;;5017973;28;20203;-82
2023/04/17 17:50:03;;;;;;;7.30;6.60;;;10.10;95.10;;;;;;5015987;28;20204;-82
2023/04/17 17:52:36;;;;;;;7.00;6.40;;;10.10;95.60;;;;;;5000292;28;20219;-82
2023/04/17 17:55:12;;;;;;;6.63;6.03;;;10.10;96.40;;;;;;5010729;28;20200;-82
2023/04/17 17:57:40;;;;;;;6.13;5.53;;;10.00;96.90;;;;;;4994774;28;20258;-81
2023/04/17 18:00:09;;;;;;;5.40;4.90;;;10.00;96.50;;;;;;4996565;28;20208;-83
2023/04/17 18:02:35;;;;;;;5.10;4.57;;;9.90;96.60;;;;;;4988709;28;20199;-82
2023/04/17 18:05:03;;;;;;;4.55;4.15;;;9.80;96.20;;;;;;5005612;28;20204;-85
2023/04/17 18:07:30;;;;;;;5.13;4.63;;;9.70;96.60;;;;;;4999426;28;20551;-82
2023/04/17 18:10:00;;;;;;;4.90;4.50;;;9.60;96.80;;;;;;4996946;28;20591;-83
2023/04/17 18:12:28;;;;;;;5.00;4.50;;;9.60;97.10;;;;;;4983821;28;20215;-82
2023/04/17 18:14:55;;;;;;;5.03;4.53;;;9.60;97.30;;;;;;5013864;28;20210;-83
2023/04/17 18:17:25;;;;;;;5.25;4.75;;;9.60;97.60;;;;;;4997416;28;20200;-83
2023/04/17 18:20:34;;;;;;;5.18;4.70;;;9.60;97.50;;;;;;5014830;28;20548;-83
2023/04/17 18:26:35;;;;;;;5.50;5.00;;;9.50;97.30;;;;;;5014132;28;20549;-83
2023/04/17 18:29:07;;;;;;;5.20;4.60;;;9.50;97.50;;;;;;5013975;28;20198;-83
2023/04/17 18:31:38;;;;;;;6.28;5.07;;;9.50;97.80;;;;;;5015981;28;20600;-85
2023/04/17 18:34:05;;;;;;;5.90;5.30;;;9.40;97.80;;;;;;4981814;28;20222;-83
2023/04/17 18:36:32;;;;;;;5.80;5.20;;;9.40;98.40;;;;;;4994539;28;20195;-84
2023/04/17 18:38:59;;;;;;;7.03;5.28;;;9.40;98.60;;;;;;5005938;28;20223;-83
2023/04/17 18:41:28;;;;;;;5.40;4.90;;;9.40;98.60;;;;;;4998304;28;20206;-84
2023/04/17 18:43:55;;;;;;;5.15;4.75;;;9.40;98.80;;;;;;5013496;28;20213;-84
2023/04/17 18:46:29;;;;;;;6.70;5.78;;;9.40;98.90;;;;;;5013459;28;20211;-84
2023/04/17 18:48:56;;;;;;;6.22;5.63;;;9.40;98.60;;;;;;5011667;28;20199;-83
2023/04/17 18:51:23;;;;;;;5.70;5.20;;;9.40;98.60;;;;;;5016439;28;20246;-84
2023/04/17 18:53:50;;;;;;;6.55;5.80;;;9.40;98.60;;;;;;4996016;28;20209;-84
2023/04/17 18:56:17;;;;;;;6.10;5.50;;;9.30;98.30;;;;;;5013558;28;20289;-83
2023/04/17 18:58:45;;;;;;;6.10;5.50;;;9.30;98.50;;;;;;5019480;28;20204;-90
2023/04/17 19:01:12;;;;;;;6.32;5.70;;;9.30;98.60;;;;;;5012371;28;20207;-84
2023/04/17 19:03:39;;;;;;;6.40;5.80;;;9.30;98.60;;;;;;5012962;28;20195;-88
2023/04/17 19:06:07;;;;;;;8.95;6.20;;;9.30;98.60;;;;;;4997065;28;20211;-84
2023/04/17 19:08:34;;;;;;;8.00;6.53;;;9.30;98.60;;;;;;5017062;28;20227;-84
2023/04/17 19:11:01;;;;;;;8.45;6.53;;;9.20;98.80;;;;;;5019608;28;20191;-84
2023/04/17 19:13:28;;;;;;;7.10;6.32;;;9.20;99.10;;;;;;5003535;28;20206;-84
2023/04/17 19:15:57;;;;;;;8.70;7.07;;;9.20;99.20;;;;;;5015229;28;20198;-84
2023/04/17 19:18:25;;;;;;;7.72;6.88;;;9.20;99.30;;;;;;4996545;28;20621;-84
2023/04/17 19:27:23;;;;;;;7.22;6.53;;;9.30;99.30;;;;;;4994185;28;20179;-84
2023/04/17 19:33:54;;;;;;;7.38;6.40;;;9.30;98.60;;;;;;4993994;28;20207;-83
2023/04/17 19:39:48;;;;;;;5.72;5.13;;;9.40;98.20;;;;;;4994001;28;20163;-84
2023/04/17 19:49:54;;;;;;;4.75;4.35;;;9.40;96.90;;;;;;4993337;28;20203;-84
2023/04/17 19:55:46;;;;;;;5.20;4.70;;;9.40;97.20;;;;;;4997340;28;20218;-85
2023/04/17 20:05:29;;;;;;;5.45;4.95;;;9.30;97.50;;;;;;4997136;28;20180;-84
2023/04/17 20:11:43;;;;;;;6.22;5.60;;;9.30;97.80;;;;;;4997141;28;20168;-84
2023/04/17 20:14:13;;;;;;;6.53;5.50;;;9.30;97.80;;;;;;4997187;28;20231;-84
2023/04/17 20:16:40;;;;;;;8.77;6.13;;;9.20;98.20;;;;;;4997018;28;20206;-85
2023/04/17 20:19:07;;;;;;;8.45;5.90;;;9.20;98.60;;;;;;5003994;28;20644;-84
